Time;durP1;ratioP1;P1;durP2;ratioP2;P2;SDS_P1;SDS_P2;PMS_P1;PMS_P2;Temp;Humidity;BMP_temperature;BMP_pressure;BME280_temperature;BME280_humidity;BME280_pressure;Samples;Min_cycle;Max_cycle;Signal;HPM_P1;HPM_P2
2021/10/27 00:01:51;;;;;;;6.07;2.60;;;;;;;18.14;67.55;102072.31;4882682;29;20107;-77
2021/10/27 00:04:16;;;;;;;4.88;2.80;;;;;;;18.14;68.26;102064.50;4898122;29;20032;-75
2021/10/27 00:06:42;;;;;;;3.80;2.22;;;;;;;18.14;68.08;102067.13;4882436;29;20115;-77
2021/10/27 00:09:07;;;;;;;4.60;2.72;;;;;;;18.16;68.06;102065.41;4899180;29;20087;-76
2021/10/27 00:11:33;;;;;;;5.72;2.70;;;;;;;18.15;68.09;102075.78;4898029;29;20115;-76
2021/10/27 00:14:00;;;;;;;5.43;2.65;;;;;;;18.15;67.86;102078.41;4882572;29;20450;-77
2021/10/27 00:16:28;;;;;;;6.00;2.60;;;;;;;18.15;67.58;102067.97;4882529;29;20036;-76
2021/10/27 00:18:53;;;;;;;4.95;2.40;;;;;;;18.15;67.87;102065.38;4898049;29;20112;-75
2021/10/27 00:21:18;;;;;;;4.57;2.55;;;;;;;18.14;67.85;102074.94;4867105;29;20037;-76
2021/10/27 00:23:44;;;;;;;4.40;2.38;;;;;;;18.14;67.82;102072.31;4899025;29;20028;-76
2021/10/27 00:26:09;;;;;;;6.45;2.58;;;;;;;18.15;67.79;102065.38;4882589;29;20076;-75
2021/10/27 00:28:35;;;;;;;4.90;2.20;;;;;;;18.15;67.98;102067.97;4897865;29;20347;-75
2021/10/27 00:31:00;;;;;;;5.43;2.60;;;;;;;18.14;67.78;102064.50;4851718;29;20389;-76
2021/10/27 00:33:25;;;;;;;4.07;2.33;;;;;;;18.14;68.04;102061.91;4866695;29;20028;-75
2021/10/27 00:35:51;;;;;;;5.70;2.20;;;;;;;18.15;67.84;102066.25;4897693;29;20037;-76
2021/10/27 00:38:16;;;;;;;4.25;2.03;;;;;;;18.15;68.01;102067.97;4897499;29;20111;-76
2021/10/27 00:40:42;;;;;;;4.57;2.20;;;;;;;18.16;67.62;102069.72;4881921;29;20036;-75
2021/10/27 00:43:07;;;;;;;4.68;2.50;;;;;;;18.15;67.68;102078.41;4866444;29;20056;-77
2021/10/27 00:45:32;;;;;;;5.32;2.80;;;;;;;18.14;67.70;102085.34;4882069;29;20028;-77
2021/10/27 00:47:58;;;;;;;4.80;2.42;;;;;;;18.15;67.61;102079.28;4898754;29;20112;-77
2021/10/27 00:50:24;;;;;;;5.53;2.60;;;;;;;18.14;67.61;102082.75;4866359;29;20033;-77
2021/10/27 00:52:49;;;;;;;5.82;2.47;;;;;;;18.15;67.68;102078.41;4881750;29;20028;-78
2021/10/27 00:55:15;;;;;;;5.20;2.30;;;;;;;18.15;67.55;102081.88;4898675;29;20028;-77
2021/10/27 00:57:42;;;;;;;5.18;2.45;;;;;;;18.15;67.63;102086.22;4866297;29;20478;-77
2021/10/27 01:00:08;;;;;;;6.18;2.40;;;;;;;18.14;67.58;102087.06;4866215;29;20375;-75
2021/10/27 01:02:34;;;;;;;6.05;2.42;;;;;;;18.14;67.88;102080.16;4881850;29;20040;-76
2021/10/27 01:04:59;;;;;;;4.40;2.30;;;;;;;18.14;67.60;102090.56;4898630;29;20089;-77
2021/10/27 01:07:25;;;;;;;3.92;2.20;;;;;;;18.15;67.34;102094.03;4866248;29;20025;-76
2021/10/27 01:09:51;;;;;;;5.13;2.20;;;;;;;18.14;67.61;102089.66;4865890;29;20549;-75
2021/10/27 01:12:17;;;;;;;6.32;2.08;;;;;;;18.14;68.01;102089.66;4897064;29;20158;-76
2021/10/27 01:14:46;;;;;;;4.25;2.28;;;;;;;18.14;67.65;102097.47;4898477;29;20164;-76
2021/10/27 01:17:15;;;;;;;4.10;1.98;;;;;;;18.15;67.82;102094.03;4897381;29;20439;-76
2021/10/27 01:19:49;;;;;;;4.78;2.25;;;;;;;18.14;67.46;102090.56;4898306;29;20033;-76
2021/10/27 01:22:17;;;;;;;3.63;1.80;;;;;;;18.14;67.39;102098.38;4897128;29;20027;-76
2021/10/27 01:24:43;;;;;;;3.85;1.75;;;;;;;18.14;67.70;102092.28;4881897;29;20028;-76
2021/10/27 01:27:09;;;;;;;4.82;2.10;;;;;;;18.14;67.63;102093.16;4897188;29;20043;-76
2021/10/27 01:29:35;;;;;;;4.68;2.13;;;;;;;18.14;67.49;102092.28;4850666;29;20481;-76
2021/10/27 01:32:01;;;;;;;4.82;2.17;;;;;;;18.14;67.15;102089.66;4881914;29;20052;-75
2021/10/27 01:34:26;;;;;;;4.40;2.08;;;;;;;18.14;67.44;102092.28;4881529;29;20079;-77
2021/10/27 01:36:52;;;;;;;4.38;2.08;;;;;;;18.14;67.38;102094.88;4866418;29;20473;-77
2021/10/27 01:39:17;;;;;;;4.13;1.95;;;;;;;18.14;67.53;102089.66;4897786;29;20111;-77
2021/10/27 01:41:43;;;;;;;4.80;2.28;;;;;;;18.13;67.56;102094.00;4897786;29;20469;-77
2021/10/27 01:44:09;;;;;;;4.55;2.05;;;;;;;18.14;67.24;102089.66;4881950;29;20072;-76
2021/10/27 01:46:37;;;;;;;6.82;2.30;;;;;;;18.13;67.39;102087.94;4881907;29;20430;-77
2021/10/27 01:49:06;;;;;;;4.20;1.90;;;;;;;18.13;67.02;102088.81;4897076;29;20375;-79
2021/10/27 01:51:31;;;;;;;4.25;2.00;;;;;;;18.14;67.35;102090.56;4897204;29;20025;-76
2021/10/27 01:54:00;;;;;;;4.63;2.00;;;;;;;18.14;67.23;102084.47;4881292;29;20481;-76
2021/10/27 01:56:26;;;;;;;3.53;1.90;;;;;;;18.13;67.46;102088.81;4881519;29;20033;-76
2021/10/27 01:58:53;;;;;;;5.38;1.85;;;;;;;18.14;67.56;102081.84;4881884;29;20039;-76
2021/10/27 02:01:18;;;;;;;4.28;1.98;;;;;;;18.14;67.36;102085.34;4896470;29;20044;-76
2021/10/27 02:03:47;;;;;;;4.22;1.90;;;;;;;18.13;67.46;102083.59;4881028;29;20037;-78
2021/10/27 02:06:13;;;;;;;4.68;1.92;;;;;;;18.14;67.55;102074.03;4865398;29;20100;-77
2021/10/27 02:08:39;;;;;;;4.60;2.15;;;;;;;18.14;67.75;102071.44;4865426;29;20077;-77
2021/10/27 02:11:05;;;;;;;3.92;1.95;;;;;;;18.14;67.35;102066.22;4881847;29;20434;-75
2021/10/27 02:13:31;;;;;;;5.03;1.85;;;;;;;18.14;67.46;102072.31;4901294;29;20032;-76
2021/10/27 02:15:57;;;;;;;4.65;2.00;;;;;;;18.14;67.23;102069.72;4868965;29;20486;-75
2021/10/27 02:18:22;;;;;;;3.78;1.70;;;;;;;18.14;67.70;102067.13;4884254;29;20405;-78
2021/10/27 02:20:48;;;;;;;3.70;1.77;;;;;;;18.14;67.21;102061.91;4884279;29;20035;-77
2021/10/27 02:23:15;;;;;;;4.75;1.95;;;;;;;18.14;67.18;102061.91;4901167;29;20039;-76
2021/10/27 02:25:40;;;;;;;4.70;2.00;;;;;;;18.15;67.72;102060.16;4884340;29;20033;-78
2021/10/27 02:28:06;;;;;;;3.95;1.90;;;;;;;18.15;67.30;102060.16;4884138;29;20381;-76
2021/10/27 02:30:31;;;;;;;4.43;1.85;;;;;;;18.14;67.31;102053.19;4901359;29;20037;-79
2021/10/27 02:32:57;;;;;;;4.10;1.92;;;;;;;18.14;67.23;102053.19;4853179;29;20033;-78
2021/10/27 02:35:22;;;;;;;3.55;1.98;;;;;;;18.14;67.12;102056.69;4869030;29;20029;-77
2021/10/27 02:37:48;;;;;;;6.03;2.13;;;;;;;18.14;67.22;102054.09;4868436;29;20431;-77
2021/10/27 02:40:14;;;;;;;4.43;1.50;;;;;;;18.12;66.99;102058.41;4868806;29;20032;-77
2021/10/27 02:42:41;;;;;;;4.38;1.80;;;;;;;18.14;67.37;102059.31;4884333;29;20462;-77
2021/10/27 02:45:08;;;;;;;3.85;1.52;;;;;;;18.14;67.20;102061.91;4884057;29;20035;-77
2021/10/27 02:47:34;;;;;;;4.57;1.73;;;;;;;18.14;67.11;102059.31;4884000;29;20063;-77
2021/10/27 02:49:59;;;;;;;4.43;1.70;;;;;;;18.14;67.29;102054.09;4868212;29;20046;-79
2021/10/27 02:52:25;;;;;;;4.45;1.67;;;;;;;18.15;67.22;102052.34;4899156;29;20036;-77
2021/10/27 02:54:50;;;;;;;3.45;1.42;;;;;;;18.15;67.06;102063.63;4852797;29;20028;-76
2021/10/27 02:57:15;;;;;;;4.22;1.50;;;;;;;18.14;67.17;102055.81;4883704;29;20032;-79
2021/10/27 02:59:41;;;;;;;5.00;1.90;;;;;;;18.14;67.25;102055.81;4852675;29;20075;-78
2021/10/27 03:02:06;;;;;;;3.95;1.60;;;;;;;18.14;67.28;102058.41;4899060;29;20040;-80
2021/10/27 03:04:32;;;;;;;4.07;1.90;;;;;;;18.13;66.98;102057.53;4868014;29;20485;-77
2021/10/27 03:06:58;;;;;;;3.13;1.63;;;;;;;18.14;67.13;102063.63;4883689;29;20033;-78
2021/10/27 03:09:24;;;;;;;4.82;1.60;;;;;;;18.14;67.34;102069.72;4881456;29;20064;-77
2021/10/27 03:11:51;;;;;;;3.80;1.42;;;;;;;18.14;67.51;102068.81;4898930;29;20127;-78
2021/10/27 03:14:16;;;;;;;4.07;1.80;;;;;;;18.14;67.28;102069.72;4900304;29;20021;-79
2021/10/27 03:16:42;;;;;;;5.50;1.90;;;;;;;18.14;67.04;102068.81;4867789;29;20063;-78
2021/10/27 03:19:07;;;;;;;4.57;1.77;;;;;;;18.14;67.26;102069.72;4868165;29;20032;-78
2021/10/27 03:21:33;;;;;;;3.83;1.60;;;;;;;18.13;67.06;102069.69;4867819;29;20024;-79
2021/10/27 03:24:00;;;;;;;3.38;1.63;;;;;;;18.14;67.04;102077.53;4867227;29;20027;-78
2021/10/27 03:26:26;;;;;;;3.58;1.40;;;;;;;18.15;66.89;102079.28;4883677;29;20028;-77
2021/10/27 03:28:51;;;;;;;4.00;1.67;;;;;;;18.14;66.95;102074.94;4898880;29;20541;-76
2021/10/27 03:31:16;;;;;;;5.00;1.98;;;;;;;18.14;67.14;102072.31;4867930;29;20528;-76
2021/10/27 03:33:42;;;;;;;4.40;1.70;;;;;;;18.14;66.97;102071.44;4852142;29;20478;-76
2021/10/27 03:36:09;;;;;;;5.05;1.85;;;;;;;18.14;66.99;102066.22;4882966;29;20036;-76
2021/10/27 03:38:35;;;;;;;2.63;1.42;;;;;;;18.14;66.91;102074.03;4883039;29;20123;-77
2021/10/27 03:41:00;;;;;;;3.90;1.40;;;;;;;18.14;66.92;102066.22;4898410;29;20088;-76
2021/10/27 03:43:27;;;;;;;4.30;1.75;;;;;;;18.14;67.08;102068.81;4867190;29;20028;-76
2021/10/27 03:45:52;;;;;;;3.70;1.40;;;;;;;18.14;67.20;102063.63;4882972;29;20036;-78
2021/10/27 03:48:18;;;;;;;4.30;1.73;;;;;;;18.13;67.26;102059.28;4900034;29;20088;-76
2021/10/27 03:50:44;;;;;;;3.92;1.60;;;;;;;18.13;66.93;102062.75;4898515;29;20104;-78
2021/10/27 03:53:09;;;;;;;5.05;1.70;;;;;;;18.15;66.87;102067.97;4898220;29;20051;-76
2021/10/27 03:55:35;;;;;;;4.63;1.70;;;;;;;18.14;67.06;102063.63;4898376;29;20044;-78
2021/10/27 03:58:01;;;;;;;4.60;1.60;;;;;;;18.14;66.95;102066.22;4867062;29;20088;-77
2021/10/27 04:00:27;;;;;;;2.85;1.42;;;;;;;18.13;67.25;102065.34;4882769;29;20071;-78
2021/10/27 04:02:52;;;;;;;4.43;1.45;;;;;;;18.14;67.03;102059.31;4899708;29;20047;-77
2021/10/27 04:05:18;;;;;;;5.60;1.92;;;;;;;18.14;67.06;102066.22;4899184;29;20036;-76
2021/10/27 04:07:43;;;;;;;4.45;1.50;;;;;;;18.14;67.25;102071.44;4851701;29;20196;-78
2021/10/27 04:10:11;;;;;;;6.20;1.58;;;;;;;18.14;66.78;102067.13;4882613;29;20088;-77
2021/10/27 04:12:38;;;;;;;3.45;1.70;;;;;;;18.14;66.97;102071.44;4882295;29;20413;-77
2021/10/27 04:15:05;;;;;;;3.65;1.70;;;;;;;18.14;67.03;102066.22;4867089;29;20441;-79
2021/10/27 04:17:31;;;;;;;3.38;1.33;;;;;;;18.13;67.15;102065.34;4882482;29;20508;-78
2021/10/27 04:19:57;;;;;;;3.97;1.50;;;;;;;18.14;67.00;102079.25;4882314;29;20033;-77
2021/10/27 04:22:23;;;;;;;2.80;1.38;;;;;;;18.14;67.13;102081.84;4867257;29;20030;-76
2021/10/27 04:24:49;;;;;;;3.92;1.40;;;;;;;18.13;67.18;102074.91;4882571;29;20477;-77
2021/10/27 04:27:14;;;;;;;3.28;1.58;;;;;;;18.14;67.19;102085.34;4882435;29;20437;-77
2021/10/27 04:29:40;;;;;;;3.78;1.63;;;;;;;18.13;67.34;102073.16;4882322;29;20032;-78
2021/10/27 04:32:05;;;;;;;3.65;1.33;;;;;;;18.13;66.89;102080.13;4897633;29;20381;-78
2021/10/27 04:34:31;;;;;;;3.35;1.70;;;;;;;18.13;66.93;102075.78;4881153;29;20040;-78
2021/10/27 04:36:56;;;;;;;3.45;1.33;;;;;;;18.13;67.06;102075.78;4866557;29;20036;-78
2021/10/27 04:39:22;;;;;;;4.47;1.67;;;;;;;18.14;66.98;102071.44;4882005;29;20067;-78
2021/10/27 04:41:47;;;;;;;3.15;1.50;;;;;;;18.14;67.13;102079.25;4851100;29;20029;-78
2021/10/27 04:44:13;;;;;;;2.95;1.30;;;;;;;18.13;67.01;102078.38;4881712;29;20500;-75
2021/10/27 04:46:38;;;;;;;3.55;1.30;;;;;;;18.14;66.93;102087.06;4866286;29;20032;-78
2021/10/27 04:49:03;;;;;;;2.45;1.30;;;;;;;18.14;67.01;102089.66;4881852;29;20040;-77
2021/10/27 04:51:29;;;;;;;3.63;1.70;;;;;;;18.15;66.89;102088.81;4866307;29;20039;-79
2021/10/27 04:53:54;;;;;;;2.78;1.50;;;;;;;18.14;66.69;102079.25;4881741;29;20040;-80
2021/10/27 04:56:19;;;;;;;2.58;1.35;;;;;;;18.14;66.78;102074.94;4881617;29;20063;-79
2021/10/27 04:58:45;;;;;;;4.50;1.80;;;;;;;18.13;66.69;102069.69;4866184;29;20083;-79
2021/10/27 05:01:14;;;;;;;4.40;1.40;;;;;;;18.13;66.92;102080.97;4866398;29;20195;-79
2021/10/27 05:03:42;;;;;;;3.30;1.33;;;;;;;18.13;66.76;102074.91;4882032;29;20084;-78
2021/10/27 05:06:08;;;;;;;3.50;1.48;;;;;;;18.14;67.07;102079.25;4897014;29;20024;-79
2021/10/27 05:08:35;;;;;;;3.65;1.52;;;;;;;18.14;66.81;102081.84;4866379;29;20044;-79
2021/10/27 05:11:01;;;;;;;4.28;1.40;;;;;;;18.14;66.95;102087.06;4881632;29;20048;-80
2021/10/27 05:13:27;;;;;;;4.00;1.45;;;;;;;18.14;66.67;102076.63;4881624;29;20418;-78
2021/10/27 05:15:52;;;;;;;3.60;1.20;;;;;;;18.14;67.05;102087.06;4881935;29;20417;-79
2021/10/27 05:18:18;;;;;;;4.50;1.67;;;;;;;18.14;66.83;102079.25;4897015;29;20025;-80
2021/10/27 05:20:44;;;;;;;4.97;1.85;;;;;;;18.14;66.87;102084.47;4881485;29;20025;-75
2021/10/27 05:23:09;;;;;;;2.92;1.40;;;;;;;18.14;66.93;102087.06;4881472;29;20056;-76
2021/10/27 05:25:35;;;;;;;3.65;1.40;;;;;;;18.14;66.84;102081.84;4896992;29;20533;-78
2021/10/27 05:28:00;;;;;;;3.10;1.50;;;;;;;18.14;66.88;102084.47;4881572;29;20028;-76
2021/10/27 05:30:27;;;;;;;3.63;1.45;;;;;;;18.15;66.95;102088.81;4865887;29;20135;-78
2021/10/27 05:32:56;;;;;;;4.50;1.27;;;;;;;18.14;66.56;102084.47;4896730;29;20072;-80
2021/10/27 05:35:22;;;;;;;4.82;1.73;;;;;;;18.14;67.01;102079.25;4866280;29;20501;-76
2021/10/27 05:37:48;;;;;;;4.35;1.67;;;;;;;18.14;66.82;102079.25;4881663;29;20036;-77
2021/10/27 05:40:17;;;;;;;5.80;1.98;;;;;;;18.14;66.72;102074.94;4896951;29;20032;-80
2021/10/27 05:42:42;;;;;;;5.43;2.30;;;;;;;18.13;66.84;102078.38;4897002;29;20028;-76
2021/10/27 05:45:09;;;;;;;6.10;2.10;;;;;;;18.13;67.20;102078.38;4881478;29;20033;-78
2021/10/27 05:47:35;;;;;;;6.43;2.60;;;;;;;18.13;66.93;102080.97;4884815;29;20041;-77
2021/10/27 05:50:39;;;;;;;5.03;2.25;;;;;;;18.14;66.80;102077.53;4869563;29;20396;-78
2021/10/27 05:55:36;;;;;;;9.07;2.50;;;;;;;18.14;66.87;102081.84;4901894;29;20071;-80
2021/10/27 05:58:04;;;;;;;6.00;2.47;;;;;;;18.14;66.80;102079.25;4884768;29;20056;-79
2021/10/27 06:00:30;;;;;;;5.60;2.50;;;;;;;18.14;66.95;102076.63;4869394;29;20032;-78
2021/10/27 06:02:55;;;;;;;7.68;2.42;;;;;;;18.14;66.82;102087.06;4884862;29;20107;-79
2021/10/27 06:05:21;;;;;;;5.10;2.17;;;;;;;18.14;67.14;102080.16;4869085;29;20033;-80
2021/10/27 06:07:47;;;;;;;8.23;2.53;;;;;;;18.14;67.01;102092.28;4901511;29;20065;-79
2021/10/27 06:10:19;;;;;;;6.97;2.58;;;;;;;18.14;67.19;102092.28;4869217;29;20053;-79
2021/10/27 06:12:45;;;;;;;5.85;2.60;;;;;;;18.14;66.92;102093.16;4869662;29;20406;-78
2021/10/27 06:15:10;;;;;;;7.15;2.70;;;;;;;18.15;66.95;102091.44;4853775;29;20040;-78
2021/10/27 06:17:36;;;;;;;7.03;2.65;;;;;;;18.14;66.92;102095.78;4868925;29;20036;-78
2021/10/27 06:20:05;;;;;;;7.88;2.47;;;;;;;18.14;66.55;102092.28;4884567;29;20470;-78
2021/10/27 06:22:31;;;;;;;8.25;2.63;;;;;;;18.14;67.16;102106.19;4884429;29;20041;-79
2021/10/27 06:24:59;;;;;;;6.63;2.67;;;;;;;18.13;66.74;102106.19;4884210;29;20541;-79
2021/10/27 06:27:25;;;;;;;4.72;2.50;;;;;;;18.14;66.90;102113.13;4869807;29;20043;-77
2021/10/27 06:29:56;;;;;;;8.23;2.70;;;;;;;18.14;66.82;102111.41;4884189;29;20032;-78
2021/10/27 06:34:56;;;;;;;5.10;2.55;;;;;;;18.13;66.90;102109.66;4870214;29;20036;-78
2021/10/27 06:48:09;;;;;;;;;;;;;;;18.14;66.97;102121.81;4901400;29;20177;-78
2021/10/27 06:50:34;;;;;;;6.20;2.40;;;;;;;18.15;66.87;102114.88;4868471;29;19919;-78
2021/10/27 06:53:00;;;;;;;4.60;2.20;;;;;;;18.14;66.87;102121.81;4868262;29;20489;-79
2021/10/27 06:55:26;;;;;;;8.27;2.55;;;;;;;18.14;66.58;102111.41;4883733;29;20063;-80
2021/10/27 06:57:51;;;;;;;5.22;2.35;;;;;;;18.14;66.65;102127.03;4867388;29;20029;-78
2021/10/27 07:00:23;;;;;;;5.80;2.55;;;;;;;18.14;66.65;102128.75;4868363;29;20442;-78
2021/10/27 07:16:00;;;;;;;7.93;2.45;;;;;;;18.25;66.58;102133.22;4886660;29;20065;-82
2021/10/27 07:18:25;;;;;;;19.17;3.08;;;;;;;18.28;66.55;102129.75;4853400;29;20028;-86
2021/10/27 07:20:51;;;;;;;11.40;2.88;;;;;;;18.33;67.08;102133.25;4899131;29;20533;-80
2021/10/27 07:23:16;;;;;;;6.85;2.72;;;;;;;18.39;67.54;102140.25;4883243;29;20028;-82
2021/10/27 07:25:43;;;;;;;10.50;2.53;;;;;;;18.43;68.79;102142.03;4883616;29;20036;-86
2021/10/27 07:28:09;;;;;;;9.05;2.17;;;;;;;18.47;68.52;102139.47;4900655;29;20024;-86
2021/10/27 07:30:37;;;;;;;8.77;2.58;;;;;;;18.39;68.53;102138.53;4883767;29;20091;-86
2021/10/27 07:33:03;;;;;;;8.25;2.60;;;;;;;18.33;68.33;102132.38;4884383;29;20045;-87
2021/10/27 07:35:41;;;;;;;6.75;2.30;;;;;;;18.28;69.97;102138.44;4868830;29;20100;-86
2021/10/27 07:40:53;;;;;;;6.47;2.50;;;;;;;18.23;70.03;102134.91;4900609;29;20039;-86
2021/10/27 07:43:26;;;;;;;5.07;2.15;;;;;;;18.22;69.00;102140.97;4883317;29;20024;-86
2021/10/27 07:45:53;;;;;;;7.20;2.45;;;;;;;18.23;69.61;102141.88;4884360;29;20040;-86
2021/10/27 07:48:18;;;;;;;3.47;2.17;;;;;;;18.22;69.06;102146.19;4868160;29;20041;-86
2021/10/27 07:50:47;;;;;;;6.15;2.35;;;;;;;18.20;69.54;102152.25;4867884;29;20525;-87
2021/10/27 07:53:14;;;;;;;6.93;2.30;;;;;;;18.20;69.03;102155.72;4899965;29;20032;-87
2021/10/27 07:55:43;;;;;;;7.07;2.35;;;;;;;18.19;69.06;102159.19;4883442;29;20087;-86
2021/10/27 07:58:09;;;;;;;5.75;2.58;;;;;;;18.20;69.92;102163.53;4883042;29;20028;-84
2021/10/27 08:00:41;;;;;;;7.38;2.45;;;;;;;18.20;69.89;102157.47;4883051;29;20036;-87
2021/10/27 08:03:07;;;;;;;6.85;2.60;;;;;;;18.18;69.38;102157.47;4882782;29;20037;-86
2021/10/27 08:05:37;;;;;;;4.20;2.00;;;;;;;18.21;69.26;102165.31;4898953;29;20024;-86
2021/10/27 08:08:04;;;;;;;6.78;1.98;;;;;;;18.20;69.18;102162.69;4868315;29;20516;-85
2021/10/27 08:10:31;;;;;;;4.97;2.53;;;;;;;18.18;69.08;102169.59;4882897;29;20052;-87
2021/10/27 08:12:57;;;;;;;4.47;2.08;;;;;;;18.18;69.29;102167.91;4867929;29;20119;-87
2021/10/27 08:15:23;;;;;;;4.20;2.08;;;;;;;18.17;70.31;102175.69;4867429;29;20056;-87
2021/10/27 08:17:48;;;;;;;4.50;2.28;;;;;;;18.17;70.96;102167.88;4867594;29;20036;-86
2021/10/27 08:20:23;;;;;;;5.80;2.25;;;;;;;18.16;69.79;102168.72;4867524;29;20032;-86
2021/10/27 08:22:54;;;;;;;5.72;2.17;;;;;;;18.17;70.11;102173.94;4883477;29;20027;-85
2021/10/27 08:27:55;;;;;;;4.68;2.08;;;;;;;18.18;70.01;102182.63;4899460;29;20470;-85
2021/10/27 08:30:32;;;;;;;5.10;2.40;;;;;;;18.18;69.34;102174.81;4868497;29;20032;-88
2021/10/27 08:33:00;;;;;;;4.95;2.53;;;;;;;18.20;70.92;102178.31;4870585;29;20032;-89
2021/10/27 08:35:30;;;;;;;4.03;1.92;;;;;;;18.21;69.87;102182.69;4852393;29;20029;-85
2021/10/27 08:37:59;;;;;;;4.88;2.20;;;;;;;18.19;69.25;102182.66;4882910;29;20028;-87
2021/10/27 08:40:26;;;;;;;5.55;1.92;;;;;;;18.20;70.61;102181.78;4883270;29;20036;-88
2021/10/27 08:42:51;;;;;;;3.80;2.15;;;;;;;18.18;69.61;102180.91;4897963;29;20119;-88
2021/10/27 08:45:17;;;;;;;5.55;1.90;;;;;;;18.18;70.57;102188.75;4898136;29;20064;-87
2021/10/27 08:47:48;;;;;;;7.60;1.95;;;;;;;18.17;70.50;102186.97;4882451;29;20060;-86
2021/10/27 08:50:14;;;;;;;3.97;2.13;;;;;;;18.16;69.52;102195.66;4867657;29;20481;-86
2021/10/27 08:52:41;;;;;;;4.13;2.00;;;;;;;18.17;70.60;102196.53;4882183;29;20047;-86
2021/10/27 08:55:10;;;;;;;4.88;2.30;;;;;;;18.15;70.37;102196.50;4882355;29;20448;-86
2021/10/27 08:57:36;;;;;;;3.95;2.17;;;;;;;18.15;70.26;102209.53;4882835;29;20084;-86
2021/10/27 09:00:10;;;;;;;3.58;2.05;;;;;;;18.14;70.31;102209.50;4867324;29;20036;-86
2021/10/27 09:05:36;;;;;;;4.60;2.00;;;;;;;18.17;69.83;102206.94;4883707;29;20036;-87
2021/10/27 09:47:18;;;;;;;3.35;1.80;;;;;;;18.21;69.41;102207.00;4894247;29;20486;-87
2021/10/27 10:06:25;;;;;;;3.45;1.67;;;;;;;18.25;68.77;102224.41;4906198;29;20080;-87
2021/10/27 10:08:51;;;;;;;3.60;1.77;;;;;;;18.25;68.79;102229.63;4889597;29;20035;-89
2021/10/27 10:11:24;;;;;;;2.95;1.42;;;;;;;18.25;68.80;102224.41;4903780;29;20062;-88
2021/10/27 10:14:04;;;;;;;3.75;1.70;;;;;;;18.24;68.94;102222.63;4888349;29;20029;-87
2021/10/27 10:16:46;;;;;;;3.08;1.65;;;;;;;18.25;69.99;102229.63;4888252;29;20060;-89
2021/10/27 10:19:13;;;;;;;5.10;1.98;;;;;;;18.25;69.76;102232.22;4888247;29;20028;-88
2021/10/27 10:21:45;;;;;;;3.97;1.70;;;;;;;18.26;69.59;102233.09;4888423;29;20033;-87
2021/10/27 10:24:28;;;;;;;3.30;1.60;;;;;;;18.27;68.91;102234.84;4903857;29;20080;-87
2021/10/27 10:26:55;;;;;;;2.05;1.40;;;;;;;18.27;69.13;102232.25;4888255;29;20040;-87
2021/10/27 10:29:40;;;;;;;2.45;1.38;;;;;;;18.27;70.47;102234.84;4872980;29;20033;-86
2021/10/27 10:32:18;;;;;;;3.42;1.60;;;;;;;18.27;68.67;102233.13;4886950;29;20460;-89
2021/10/27 10:34:50;;;;;;;3.75;1.60;;;;;;;18.26;68.83;102236.56;4901884;29;20051;-87
2021/10/27 10:40:27;;;;;;;3.42;1.73;;;;;;;18.27;69.51;102235.72;4886703;29;20037;-87
2021/10/27 10:45:55;;;;;;;2.95;1.55;;;;;;;18.26;68.65;102222.66;4886970;29;20470;-88
2021/10/27 11:00:11;;;;;;;3.65;1.75;;;;;;;18.28;69.24;102223.56;4901012;29;20111;-86
2021/10/27 11:25:28;;;;;;;2.92;1.40;;;;;;;18.37;67.82;102215.81;4900779;29;20124;-79
2021/10/27 11:39:39;;;;;;;3.10;1.45;;;;;;;18.39;68.15;102203.69;4900883;29;20043;-85
2021/10/27 11:44:52;;;;;;;1.92;1.40;;;;;;;18.39;68.94;102202.81;4899233;29;20044;-83
2021/10/27 11:47:38;;;;;;;3.58;1.77;;;;;;;18.41;68.45;102198.47;4883273;29;20087;-85
2021/10/27 11:50:06;;;;;;;2.45;1.48;;;;;;;18.43;67.96;102199.38;4898782;29;20028;-86
2021/10/27 11:52:39;;;;;;;2.90;1.60;;;;;;;18.42;68.42;102200.22;4883148;29;20025;-85
2021/10/27 11:55:06;;;;;;;2.10;1.40;;;;;;;18.42;68.03;102192.41;4898369;29;20030;-84
2021/10/27 11:57:38;;;;;;;2.50;1.38;;;;;;;18.41;67.72;102191.53;4898632;29;20456;-86
2021/10/27 12:00:10;;;;;;;2.55;1.50;;;;;;;18.41;67.90;102183.72;4882605;29;20045;-87
2021/10/27 12:03:04;;;;;;;2.55;1.60;;;;;;;18.42;68.36;102195.00;4898301;29;20020;-85
2021/10/27 12:05:54;;;;;;;;;;;;;;;18.39;67.99;102189.78;4883977;29;20107;-85
2021/10/27 12:08:32;;;;;;;2.70;1.38;;;;;;;18.39;67.82;102175.00;4899553;29;19967;-83
2021/10/27 12:19:59;;;;;;;3.33;1.30;;;;;;;18.43;68.02;102171.56;4899783;29;20124;-87
2021/10/27 12:22:34;;;;;;;2.05;1.33;;;;;;;18.41;68.03;102175.88;4883467;29;20044;-89
2021/10/27 12:25:09;;;;;;;2.67;1.58;;;;;;;18.41;67.83;102169.81;4882454;29;20043;-88
2021/10/27 12:27:50;;;;;;;3.53;1.40;;;;;;;18.41;67.97;102173.28;4867560;29;20047;-88
2021/10/27 12:30:17;;;;;;;2.75;1.40;;;;;;;18.42;67.87;102167.22;4882681;29;20028;-89
2021/10/27 12:32:55;;;;;;;2.08;1.33;;;;;;;18.41;68.15;102156.78;4882805;29;20088;-88
2021/10/27 12:35:28;;;;;;;2.85;1.50;;;;;;;18.42;67.73;102159.41;4882950;29;20033;-88
2021/10/27 12:38:22;;;;;;;2.25;1.50;;;;;;;18.44;67.99;102164.63;4882878;29;20032;-89
2021/10/27 12:40:50;;;;;;;2.13;1.20;;;;;;;18.45;68.22;102162.03;4882505;29;20029;-89
2021/10/27 12:43:22;;;;;;;2.85;1.58;;;;;;;18.44;68.03;102159.41;4867307;29;20028;-87
2021/10/27 12:45:55;;;;;;;2.35;1.30;;;;;;;18.43;67.80;102162.88;4882834;29;20485;-88
2021/10/27 12:48:34;;;;;;;1.85;1.20;;;;;;;18.43;67.95;102165.50;4882863;29;20557;-88
2021/10/27 12:51:04;;;;;;;2.47;1.40;;;;;;;18.42;68.12;102158.50;4882696;29;20028;-88
2021/10/27 12:53:35;;;;;;;2.63;1.30;;;;;;;18.43;67.95;102155.06;4867541;29;20092;-89
2021/10/27 12:56:17;;;;;;;2.22;1.25;;;;;;;18.44;67.62;102154.19;4897497;29;20021;-88
2021/10/27 12:59:01;;;;;;;2.47;1.63;;;;;;;18.43;68.11;102147.25;4898146;29;20037;-89
2021/10/27 13:01:44;;;;;;;2.70;1.50;;;;;;;18.43;68.02;102149.84;4882240;29;20119;-88
2021/10/27 13:10:19;;;;;;;;;;;;;;;;;;;;;
2021/10/27 13:15:33;;;;;;;2.80;1.50;;;;;;;18.40;67.84;102131.56;4884009;29;20104;-88
2021/10/27 13:21:12;;;;;;;2.92;1.25;;;;;;;18.43;68.04;102139.44;4899016;29;20032;-90
2021/10/27 13:31:41;;;;;;;3.67;1.67;;;;;;;18.45;67.37;102143.78;4866969;29;20040;-87
2021/10/27 13:34:08;;;;;;;2.92;1.60;;;;;;;18.47;67.44;102143.81;4884135;29;20048;-88
2021/10/27 13:36:33;;;;;;;4.35;1.90;;;;;;;18.47;67.09;102139.47;4883453;29;20033;-87
2021/10/27 13:39:00;;;;;;;2.90;1.52;;;;;;;18.46;67.05;102137.69;4882869;29;20033;-88
2021/10/27 13:41:26;;;;;;;2.58;1.50;;;;;;;18.47;67.29;102131.63;4852242;29;20378;-87
2021/10/27 13:43:55;;;;;;;2.70;1.67;;;;;;;18.48;67.42;102132.50;4882912;29;20461;-88
2021/10/27 13:46:35;;;;;;;1.85;1.40;;;;;;;18.48;67.34;102125.53;4867222;29;20060;-88
2021/10/27 14:08:34;;;;;;;2.53;1.60;;;;;;;18.48;66.96;102133.38;4901735;29;20412;-87
2021/10/27 14:13:43;;;;;;;1.92;1.30;;;;;;;18.48;66.89;102119.47;4885985;29;20573;-88
2021/10/27 14:16:34;;;;;;;2.70;1.48;;;;;;;18.48;66.81;102122.06;4885271;29;20032;-89
2021/10/27 15:21:26;;;;;;;2.83;1.70;;;;;;;17.83;72.07;102118.03;4874041;29;20039;-89
2021/10/27 15:24:11;;;;;;;3.00;1.63;;;;;;;17.81;72.55;102112.81;4854182;29;20029;-89
2021/10/27 15:34:57;;;;;;;2.92;1.80;;;;;;;17.78;72.36;102112.75;4884940;29;20108;-88
2021/10/27 15:45:38;;;;;;;3.75;1.80;;;;;;;17.76;72.09;102122.28;4884561;29;20028;-88
2021/10/27 15:51:00;;;;;;;4.32;1.60;;;;;;;17.74;72.93;102113.59;4886205;29;20096;-88
2021/10/27 15:53:25;;;;;;;2.00;1.65;;;;;;;17.73;73.38;102122.28;4883400;29;20036;-88
2021/10/27 15:55:51;;;;;;;2.10;1.60;;;;;;;17.71;72.58;102115.31;4883601;29;20033;-89
2021/10/27 15:58:17;;;;;;;2.85;1.95;;;;;;;17.72;72.80;102117.91;4868126;29;20028;-88
2021/10/27 16:00:43;;;;;;;3.15;1.70;;;;;;;17.72;73.21;102104.03;4867950;29;20039;-88
2021/10/27 16:03:09;;;;;;;2.63;1.73;;;;;;;17.74;72.57;102105.78;4868047;29;20028;-88
2021/10/27 16:05:41;;;;;;;3.83;1.73;;;;;;;17.73;72.71;102111.00;4867694;29;20489;-87
2021/10/27 16:08:07;;;;;;;2.20;1.50;;;;;;;17.71;72.66;102104.91;4882965;29;20028;-88
2021/10/27 16:10:35;;;;;;;3.67;1.90;;;;;;;17.71;72.74;102110.97;4867023;29;20481;-86
2021/10/27 16:13:01;;;;;;;2.83;1.70;;;;;;;17.71;72.35;102115.31;4852354;29;20045;-86